Airfield :
LOGIN :

Register | Disclaimer

   EN    FR    IT 

 










Legend :    VFR   Marginal VFR   IFR   Intensive IFR   Very Intensive IFR
Visi :
Ceiling :
>= 8 km
>= 3000ft
5 to 8 km
1000 to 3000 ft
1500m to 5 km
500 to 1000 ft
800 to 1500m
200 to 500 ft
< 800m
< 200 ft
Symbols :   Thunderstorms  Fog  Heavy snow  Heavy precipitations  Wind > 20 kt
SIGMETs :     Misc.  Thunderstorms  Icing  Turbulence  Mountain Waves  Volcanic Ashes






- Airport Elevation : 215 ft
- IATA code : ABZ


EGPD - Aberdeen / Dyce

CURRENT METAR :
  • 141350Z 32013KT 9999 VCSH FEW030CB 04/02 Q1008 TEMPO SHRA

EXPIRED METARs :
  • 141320Z 32013KT 9999 VCSH FEW030CB 04/02 Q1008 NOSIG
  • 141250Z 32014KT 9999 VCSH FEW027CB 04/02 Q1008
  • 141220Z 30013KT 9999 VCSH SCT036CB 04/02 Q1008
  • 141150Z 30012KT 9999 VCSH FEW024CB 04/01 Q1008 TEMPO SHRA
  • 141120Z 31013KT 9999 VCSH FEW032CB 04/01 Q1007 TEMPO SHRA

TAF TAF EGPD
Valid from the 14 at 12:00 until the 15 at 12:00 UTC


141102Z 1412/1512 33012KT 9999 SCT020
PROB40
TEMPO 1412/1424 36015G25KT 7000 SHRA BKN014



MET'MAP, your aeronautical weather chart ! - Copyright ORBIFLY December 2007 - Disclaimer

ORBIFLY MET'MAP TEAM :

Programming & Development : Alexandra Zaïnal
Concept & Development : Baudouin d'Aumeries
Co-Development & Prog : Marc-Olivier Méhu
Technical & hardware support : Manuel Goepfert

Contact : metmap@orbifly.com




SOURCES & CREDITS :

   NOAA